createdAt,value
2018-09-12T00:01:49.441Z,74.40
2018-09-12T00:04:17.618Z,74.30
2018-09-12T00:06:46.155Z,74.30
2018-09-12T00:09:14.350Z,74.60
2018-09-12T00:11:42.549Z,74.60
2018-09-12T00:14:11.096Z,74.40
2018-09-12T00:16:39.308Z,74.00
2018-09-12T00:19:07.802Z,73.60
2018-09-12T00:21:36.379Z,73.50
2018-09-12T00:24:04.615Z,73.40
2018-09-12T00:26:32.808Z,73.30
2018-09-12T00:29:01.181Z,73.10
2018-09-12T00:31:29.514Z,73.10
2018-09-12T00:33:57.766Z,73.20
2018-09-12T00:36:26.066Z,73.40
2018-09-12T00:38:54.296Z,73.40
2018-09-12T00:41:22.591Z,73.70
2018-09-12T00:43:50.930Z,73.90
2018-09-12T00:46:19.146Z,74.40
2018-09-12T00:48:47.406Z,74.40
2018-09-12T00:51:15.682Z,74.60
2018-09-12T00:53:44.033Z,74.60
2018-09-12T00:56:12.510Z,74.80
2018-09-12T00:58:41.595Z,74.90
2018-09-12T01:01:09.919Z,75.20
2018-09-12T01:03:38.362Z,75.40
2018-09-12T01:06:07.218Z,75.30
2018-09-12T01:08:35.459Z,75.30
2018-09-12T01:11:03.634Z,75.70
2018-09-12T01:13:31.908Z,75.70
2018-09-12T01:16:00.174Z,75.70
2018-09-12T01:18:29.458Z,76.00
2018-09-12T01:20:57.979Z,76.10
2018-09-12T01:23:26.348Z,76.10
2018-09-12T01:25:54.660Z,76.10
2018-09-12T01:28:22.914Z,76.10
2018-09-12T01:30:51.399Z,76.10
2018-09-12T01:33:19.703Z,76.30
2018-09-12T01:35:47.902Z,76.50
2018-09-12T01:38:16.123Z,76.50
2018-09-12T01:40:45.263Z,76.80
2018-09-12T01:43:13.490Z,76.90
2018-09-12T01:45:41.703Z,76.90
2018-09-12T01:48:09.928Z,77.00
2018-09-12T01:50:38.148Z,77.20
2018-09-12T01:53:06.366Z,77.50
2018-09-12T01:55:34.637Z,77.80
2018-09-12T01:58:02.839Z,78.00
2018-09-12T02:00:36.414Z,78.20
2018-09-12T02:03:05.619Z,78.40
2018-09-12T02:05:34.126Z,78.70
2018-09-12T02:08:02.332Z,78.80
2018-09-12T02:10:30.556Z,78.80
2018-09-12T02:12:59.067Z,79.00
2018-09-12T02:15:27.271Z,79.10
2018-09-12T02:17:55.551Z,79.40
2018-09-12T02:20:23.751Z,79.60
2018-09-12T02:22:51.931Z,79.80
2018-09-12T02:25:20.559Z,80.10
2018-09-12T02:32:41.497Z,80.60
2018-09-12T02:35:10.020Z,80.80
2018-09-12T02:37:38.213Z,80.80
2018-09-12T02:40:07.197Z,80.80
2018-09-12T02:42:36.254Z,80.60
2018-09-12T02:45:05.239Z,80.70
2018-09-12T02:47:38.377Z,80.90
2018-09-12T02:50:09.830Z,80.90
2018-09-12T02:52:38.283Z,81.20
2018-09-12T02:55:07.610Z,81.40
2018-09-12T02:57:35.862Z,81.60
2018-09-12T03:00:04.385Z,81.90
2018-09-12T03:02:33.064Z,82.10
2018-09-12T03:05:01.538Z,82.20
2018-09-12T03:07:29.819Z,82.60
2018-09-12T03:09:58.491Z,82.70
2018-09-12T03:12:26.718Z,82.60
2018-09-12T03:14:54.911Z,82.50
2018-09-12T03:17:23.411Z,82.70
2018-09-12T03:19:51.817Z,82.90
2018-09-12T03:22:20.110Z,82.80
2018-09-12T03:24:48.411Z,82.90
2018-09-12T03:27:16.678Z,82.90
2018-09-12T03:29:44.908Z,82.90
2018-09-12T03:37:08.729Z,82.90
2018-09-12T03:39:37.002Z,83.00
2018-09-12T03:42:05.303Z,83.20
2018-09-12T03:44:33.595Z,83.30
2018-09-12T03:47:01.806Z,83.20
2018-09-12T03:54:23.448Z,83.40
2018-09-12T03:56:51.607Z,83.40
2018-09-12T03:59:19.789Z,83.70
2018-09-12T04:01:48.106Z,83.20
2018-09-12T04:04:16.493Z,83.00
2018-09-12T04:06:44.781Z,82.80
2018-09-12T04:09:13.054Z,82.90
2018-09-12T04:11:41.304Z,82.90
2018-09-12T04:14:09.537Z,82.80
2018-09-12T04:16:37.869Z,82.50
2018-09-12T04:19:06.239Z,82.50
2018-09-12T04:21:34.628Z,82.30
2018-09-12T04:24:02.811Z,82.00
2018-09-12T04:26:31.110Z,82.00
2018-09-12T04:28:59.339Z,82.20
2018-09-12T04:31:28.665Z,82.30
2018-09-12T04:33:57.145Z,82.50
2018-09-12T04:36:25.417Z,82.40
2018-09-12T04:38:53.709Z,82.50
2018-09-12T04:41:22.300Z,82.50
2018-09-12T04:43:50.559Z,82.60
2018-09-12T04:46:19.074Z,82.70
2018-09-12T04:48:47.335Z,82.60
2018-09-12T04:51:15.675Z,82.80
2018-09-12T04:53:44.336Z,82.90
2018-09-12T04:56:12.591Z,83.10
2018-09-12T04:58:40.799Z,83.30
2018-09-12T05:01:08.994Z,83.50
2018-09-12T05:03:37.183Z,83.30
2018-09-12T05:06:05.402Z,83.30
2018-09-12T05:08:34.041Z,83.50
2018-09-12T05:11:02.334Z,83.70
2018-09-12T05:13:30.581Z,83.60
2018-09-12T05:15:58.857Z,84.60
2018-09-12T05:18:27.150Z,84.30
2018-09-12T05:20:55.346Z,84.40
2018-09-12T05:23:23.809Z,84.80
2018-09-12T05:25:52.155Z,85.10
2018-09-12T05:28:20.358Z,85.20
2018-09-12T05:30:48.585Z,85.50
2018-09-12T05:33:16.800Z,85.60
2018-09-12T05:35:45.068Z,85.80
2018-09-12T05:38:13.273Z,85.80
2018-09-12T05:40:41.490Z,85.70
2018-09-12T05:43:10.774Z,85.60
2018-09-12T05:45:38.996Z,86.00
2018-09-12T05:48:08.837Z,85.80
2018-09-12T05:50:37.126Z,85.70
2018-09-12T05:53:05.343Z,84.90
2018-09-12T05:55:33.722Z,84.60
2018-09-12T05:58:01.936Z,84.20
2018-09-12T06:00:30.109Z,83.70
2018-09-12T06:02:58.351Z,83.20
2018-09-12T06:05:26.738Z,82.50
2018-09-12T06:07:55.059Z,82.30
2018-09-12T06:15:17.118Z,81.70
2018-09-12T06:17:45.364Z,81.10
2018-09-12T06:20:13.572Z,80.50
2018-09-12T06:22:41.836Z,80.10
2018-09-12T06:25:10.041Z,80.00
2018-09-12T06:32:32.141Z,79.40
2018-09-12T06:35:00.966Z,78.40
2018-09-12T06:37:29.549Z,78.10
2018-09-12T06:39:57.870Z,77.70
2018-09-12T06:42:26.100Z,77.70
2018-09-12T06:49:49.407Z,76.60
2018-09-12T06:52:19.222Z,76.00
2018-09-12T06:54:47.451Z,76.20
2018-09-12T06:57:15.643Z,75.70
2018-09-12T06:59:44.221Z,75.50
2018-09-12T07:02:12.445Z,75.50
2018-09-12T07:04:40.679Z,74.60
2018-09-12T07:07:08.878Z,74.60
2018-09-12T07:09:37.064Z,73.30
2018-09-12T07:12:05.304Z,73.00
2018-09-12T07:14:33.634Z,71.40
2018-09-12T07:17:01.912Z,71.10
2018-09-12T07:19:30.103Z,71.30
2018-09-12T07:21:58.337Z,72.20
2018-09-12T07:24:26.664Z,72.50
2018-09-12T07:26:54.879Z,73.30
2018-09-12T07:29:23.156Z,73.30
2018-09-12T07:31:51.618Z,72.70
2018-09-12T07:34:19.851Z,72.30
2018-09-12T07:36:48.277Z,72.40
2018-09-12T07:39:16.545Z,71.30
2018-09-12T07:46:38.135Z,65.40
2018-09-12T07:49:07.555Z,63.60
2018-09-12T07:51:35.746Z,65.10
2018-09-12T07:54:03.956Z,66.80
2018-09-12T07:56:32.230Z,68.40
2018-09-12T07:59:01.377Z,69.60
2018-09-12T08:01:30.191Z,69.30
2018-09-12T08:03:58.455Z,70.20
2018-09-12T08:06:26.689Z,69.70
2018-09-12T08:08:54.989Z,69.30
2018-09-12T08:11:23.462Z,67.40
2018-09-12T08:13:51.671Z,66.90
2018-09-12T08:16:19.917Z,65.80
2018-09-12T08:18:48.174Z,67.00
2018-09-12T08:21:16.707Z,67.20
2018-09-12T08:23:44.934Z,68.20
2018-09-12T08:26:13.280Z,67.40
2018-09-12T08:28:41.506Z,62.40
2018-09-12T08:31:09.656Z,60.40
2018-09-12T08:33:37.882Z,61.90
2018-09-12T08:36:06.250Z,60.70
2018-09-12T08:38:35.263Z,57.80
2018-09-12T08:41:03.449Z,54.90
2018-09-12T08:43:31.776Z,54.20
2018-09-12T08:46:00.060Z,53.70
2018-09-12T08:48:28.248Z,53.30
2018-09-12T08:50:56.560Z,51.60
2018-09-12T08:53:24.744Z,50.40
2018-09-12T08:55:53.001Z,52.00
2018-09-12T08:58:21.202Z,51.90
2018-09-12T09:00:49.399Z,51.00
2018-09-12T09:03:17.626Z,49.70
2018-09-12T09:05:45.960Z,47.60
2018-09-12T09:08:14.249Z,48.70
2018-09-12T09:10:42.456Z,46.70
2018-09-12T09:13:10.578Z,48.10
2018-09-12T09:15:38.862Z,47.20
2018-09-12T09:18:07.999Z,47.60
2018-09-12T09:20:36.217Z,46.60
2018-09-12T09:23:04.485Z,45.90
2018-09-12T09:25:32.699Z,46.40
2018-09-12T09:28:00.865Z,45.80
2018-09-12T09:30:30.604Z,45.50
2018-09-12T09:32:58.814Z,43.50
2018-09-12T09:35:27.061Z,43.90
2018-09-12T09:37:55.350Z,44.00
2018-09-12T09:40:23.539Z,44.90
2018-09-12T09:42:51.899Z,43.20
2018-09-12T09:45:20.063Z,45.10
2018-09-12T09:47:48.310Z,45.10
2018-09-12T09:50:16.418Z,45.70
2018-09-12T09:52:44.645Z,44.50
2018-09-12T09:55:12.829Z,44.30
2018-09-12T09:57:41.129Z,45.40
2018-09-12T10:00:15.467Z,44.90
2018-09-12T10:07:46.928Z,44.10
2018-09-12T10:10:15.272Z,45.20
2018-09-12T10:12:43.422Z,47.00
2018-09-12T10:15:11.689Z,45.90
2018-09-12T10:17:39.923Z,45.70
2018-09-12T10:20:08.059Z,45.80
2018-09-12T10:22:36.245Z,48.40
2018-09-12T10:25:04.664Z,50.00
2018-09-12T10:27:33.505Z,50.80
2018-09-12T10:30:03.070Z,51.70
2018-09-12T10:32:31.250Z,52.40
2018-09-12T10:34:59.479Z,53.20
2018-09-12T10:37:27.696Z,54.20
2018-09-12T10:39:56.013Z,54.80
2018-09-12T10:42:24.671Z,55.00
2018-09-12T10:44:52.900Z,55.90
2018-09-12T10:47:25.070Z,55.90
2018-09-12T10:49:53.553Z,56.50
2018-09-12T10:52:22.994Z,57.80
2018-09-12T10:54:51.242Z,58.60
2018-09-12T10:57:19.547Z,59.10
2018-09-12T10:59:47.881Z,59.40
2018-09-12T11:02:16.326Z,59.20
2018-09-12T11:04:44.741Z,58.70
2018-09-12T11:07:12.966Z,58.60
2018-09-12T11:09:41.224Z,59.90
2018-09-12T11:12:09.579Z,59.90
2018-09-12T11:14:38.489Z,60.00
2018-09-12T11:17:06.710Z,59.00
2018-09-12T11:19:35.008Z,57.40
2018-09-12T11:22:03.247Z,56.70
2018-09-12T11:24:31.496Z,57.00
2018-09-12T11:26:59.809Z,55.50
2018-09-12T11:29:28.035Z,55.90
2018-09-12T11:31:56.238Z,57.30
2018-09-12T11:34:24.851Z,56.60
2018-09-12T11:36:52.946Z,55.20
2018-09-12T11:39:21.204Z,54.80
2018-09-12T11:41:49.629Z,53.40
2018-09-12T11:44:17.975Z,54.60
2018-09-12T11:46:46.317Z,54.40
2018-09-12T11:49:14.495Z,54.20
2018-09-12T11:51:42.670Z,53.30
2018-09-12T11:54:11.862Z,54.20
2018-09-12T11:56:40.100Z,54.90
2018-09-12T11:59:08.543Z,55.10
2018-09-12T12:01:36.812Z,54.20
2018-09-12T12:04:04.977Z,54.40
2018-09-12T12:06:33.181Z,54.40
2018-09-12T12:09:01.338Z,53.70
2018-09-12T12:11:31.574Z,54.60
2018-09-12T12:13:59.940Z,55.20
2018-09-12T12:16:29.245Z,55.80
2018-09-12T12:18:57.442Z,56.70
2018-09-12T12:21:25.637Z,57.30
2018-09-12T12:23:53.875Z,57.20
2018-09-12T12:26:22.276Z,58.50
2018-09-12T12:28:50.454Z,57.10
2018-09-12T12:31:18.633Z,56.90
2018-09-12T12:33:46.834Z,56.70
2018-09-12T12:36:15.022Z,55.80
2018-09-12T12:38:43.434Z,55.80
2018-09-12T12:41:11.769Z,58.70
2018-09-12T12:43:40.086Z,61.10
2018-09-12T12:46:08.341Z,63.30
2018-09-12T12:48:36.653Z,65.60
2018-09-12T12:51:05.043Z,67.10
2018-09-12T12:53:34.290Z,68.50
2018-09-12T12:56:03.240Z,69.10
2018-09-12T12:58:31.467Z,69.30
2018-09-12T13:00:59.722Z,69.90
2018-09-12T13:03:28.229Z,70.40
2018-09-12T13:05:56.489Z,70.80
2018-09-12T13:08:24.669Z,71.80
2018-09-12T13:10:52.898Z,71.50
2018-09-12T13:13:21.126Z,71.80
2018-09-12T13:15:49.416Z,72.10
2018-09-12T13:18:17.647Z,72.00
2018-09-12T13:20:45.890Z,73.30
2018-09-12T13:23:14.141Z,73.40
2018-09-12T13:25:42.491Z,73.90
2018-09-12T13:28:10.922Z,74.10
2018-09-12T13:30:39.205Z,74.10
2018-09-12T13:33:07.455Z,74.10
2018-09-12T13:40:29.801Z,73.60
2018-09-12T13:42:58.040Z,72.70
2018-09-12T13:45:26.219Z,72.00
2018-09-12T13:47:54.394Z,71.10
2018-09-12T13:50:22.778Z,71.50
2018-09-12T13:52:50.999Z,71.50
2018-09-12T13:55:19.284Z,71.30
2018-09-12T13:57:47.447Z,72.50
2018-09-12T14:00:15.687Z,72.20
2018-09-12T14:02:43.957Z,72.40
2018-09-12T14:05:12.251Z,72.70
2018-09-12T14:07:40.468Z,73.50
2018-09-12T14:10:08.656Z,73.60
2018-09-12T14:12:36.890Z,74.80
2018-09-12T14:15:05.986Z,74.60
2018-09-12T14:17:34.188Z,74.70
2018-09-12T14:20:02.482Z,73.70
2018-09-12T14:22:30.709Z,74.00
2018-09-12T14:24:59.057Z,75.60
2018-09-12T14:27:27.231Z,76.50
2018-09-12T14:29:55.637Z,75.70
2018-09-12T14:32:23.926Z,75.70
2018-09-12T14:34:52.134Z,75.20
2018-09-12T14:37:20.486Z,75.00
2018-09-12T14:39:48.773Z,74.80
2018-09-12T14:42:17.183Z,74.80
2018-09-12T14:44:45.804Z,75.20
2018-09-12T14:47:14.673Z,75.20
2018-09-12T14:49:43.003Z,76.20
2018-09-12T14:52:15.691Z,77.20
2018-09-12T14:54:43.934Z,78.00
2018-09-12T14:57:12.136Z,78.10
2018-09-12T14:59:41.399Z,78.20
2018-09-12T15:02:09.754Z,78.00
2018-09-12T15:04:38.159Z,78.00
2018-09-12T15:07:06.419Z,78.30
2018-09-12T15:09:34.610Z,78.40
2018-09-12T15:12:02.972Z,77.90
2018-09-12T15:14:31.232Z,77.60
2018-09-12T15:16:59.503Z,77.80
2018-09-12T15:19:27.738Z,78.40
2018-09-12T15:21:56.950Z,77.80
2018-09-12T15:24:25.268Z,77.00
2018-09-12T15:26:54.911Z,77.70
2018-09-12T15:29:23.109Z,78.20
2018-09-12T15:31:51.350Z,78.50
2018-09-12T15:34:19.653Z,78.80
2018-09-12T15:36:48.066Z,79.00
2018-09-12T15:39:16.770Z,78.70
2018-09-12T15:41:44.984Z,79.10
2018-09-12T15:45:14.626Z,79.00
2018-09-12T15:47:42.815Z,79.10
2018-09-12T15:50:10.998Z,79.20
2018-09-12T15:52:39.544Z,79.20
2018-09-12T15:55:07.781Z,79.60
2018-09-12T15:57:37.254Z,79.30
2018-09-12T16:00:05.513Z,79.40
2018-09-12T16:02:33.735Z,78.90
2018-09-12T16:05:02.044Z,79.10
2018-09-12T16:07:30.224Z,79.10
2018-09-12T16:09:58.499Z,79.80
2018-09-12T16:12:26.838Z,80.10
2018-09-12T16:14:55.005Z,79.90
2018-09-12T16:17:23.279Z,80.20
2018-09-12T16:19:51.498Z,80.70
2018-09-12T16:22:20.715Z,80.80
2018-09-12T16:25:15.487Z,81.00
2018-09-12T16:27:44.002Z,81.70
2018-09-12T16:30:12.690Z,81.80
2018-09-12T16:32:40.961Z,81.70
2018-09-12T16:35:09.087Z,81.80
2018-09-12T16:37:37.285Z,82.00
2018-09-12T16:40:05.498Z,81.70
2018-09-12T16:42:34.730Z,81.80
2018-09-12T16:49:55.847Z,81.80
2018-09-12T16:52:24.010Z,82.70
2018-09-12T16:54:52.201Z,82.90
2018-09-12T16:57:20.407Z,83.20
2018-09-12T16:59:48.654Z,83.20
2018-09-12T17:07:09.670Z,84.50
2018-09-12T17:09:37.921Z,85.20
2018-09-12T17:12:06.159Z,86.10
2018-09-12T17:14:34.337Z,86.00
2018-09-12T17:17:02.609Z,86.10
2018-09-12T17:24:23.783Z,86.60
2018-09-12T17:26:52.141Z,87.70
2018-09-12T17:29:20.363Z,88.80
2018-09-12T17:31:48.520Z,90.00
2018-09-12T17:34:16.864Z,89.20
2018-09-12T17:36:46.344Z,89.50
2018-09-12T17:39:14.760Z,89.00
2018-09-12T17:41:43.003Z,89.70
2018-09-12T17:44:11.174Z,90.00
2018-09-12T17:46:39.359Z,90.30
2018-09-12T17:49:07.570Z,90.30
2018-09-12T17:51:35.770Z,90.50
2018-09-12T17:54:03.957Z,90.60
2018-09-12T17:56:32.274Z,90.70
2018-09-12T17:59:00.469Z,90.80
2018-09-12T18:01:28.689Z,90.90
2018-09-12T18:03:56.879Z,91.00
2018-09-12T18:06:25.209Z,91.30
2018-09-12T18:08:53.727Z,91.10
2018-09-12T18:11:22.214Z,91.20
2018-09-12T18:13:50.707Z,91.30
2018-09-12T18:16:19.224Z,91.50
2018-09-12T18:18:47.811Z,91.40
2018-09-12T18:21:16.544Z,91.40
2018-09-12T18:23:45.038Z,91.40
2018-09-12T18:26:13.307Z,91.40
2018-09-12T18:28:41.483Z,91.50
2018-09-12T18:31:09.828Z,91.50
2018-09-12T18:33:38.003Z,91.80
2018-09-12T18:36:06.290Z,91.50
2018-09-12T18:38:34.506Z,91.40
2018-09-12T18:41:02.809Z,91.30
2018-09-12T18:43:31.135Z,91.40
2018-09-12T18:45:59.377Z,91.40
2018-09-12T18:48:28.243Z,91.50
2018-09-12T18:50:56.436Z,91.60
2018-09-12T18:53:25.226Z,91.60
2018-09-12T18:55:54.557Z,91.50
2018-09-12T18:58:22.760Z,91.70
2018-09-12T19:00:50.924Z,91.70
2018-09-12T19:03:19.170Z,92.00
2018-09-12T19:05:47.452Z,91.50
2018-09-12T19:08:15.702Z,91.50
2018-09-12T19:10:43.890Z,91.50
2018-09-12T19:13:12.244Z,91.70
2018-09-12T19:15:40.505Z,91.80
2018-09-12T19:18:08.786Z,92.00
2018-09-12T19:20:50.971Z,91.90
2018-09-12T19:23:21.341Z,92.00
2018-09-12T19:25:51.070Z,91.90
2018-09-12T19:28:22.140Z,92.00
2018-09-12T19:30:51.358Z,92.20
2018-09-12T19:33:19.873Z,92.10
2018-09-12T19:35:48.391Z,92.10
2018-09-12T19:38:17.546Z,92.10
2018-09-12T19:40:45.881Z,92.10
2018-09-12T19:43:18.919Z,92.10
2018-09-12T19:45:51.532Z,92.60
2018-09-12T19:48:21.523Z,92.40
2018-09-12T19:50:51.861Z,92.60
2018-09-12T19:53:22.616Z,92.70
2018-09-12T19:55:55.786Z,92.50
2018-09-12T19:58:25.381Z,92.40
2018-09-12T20:00:59.326Z,92.30
2018-09-12T20:03:31.913Z,92.10
2018-09-12T20:06:05.135Z,92.40
2018-09-12T20:08:36.083Z,92.10
2018-09-12T20:11:06.362Z,92.50
2018-09-12T20:13:40.804Z,92.50
2018-09-12T20:16:11.286Z,92.20
2018-09-12T20:18:41.335Z,92.30
2018-09-12T20:26:06.911Z,92.50
2018-09-12T20:28:41.943Z,92.50
2018-09-12T20:31:13.626Z,92.60
2018-09-12T20:33:46.059Z,92.80
2018-09-12T20:36:17.209Z,92.70
2018-09-12T20:38:48.094Z,92.70
2018-09-12T20:41:21.177Z,92.50
2018-09-12T20:43:49.606Z,93.00
2018-09-12T20:46:18.126Z,92.70
2018-09-12T20:48:47.304Z,92.70
2018-09-12T20:51:15.722Z,93.00
2018-09-12T20:53:44.337Z,92.90
2018-09-12T20:56:12.597Z,92.90
2018-09-12T20:58:42.539Z,93.00
2018-09-12T21:01:11.021Z,93.00
2018-09-12T21:03:39.951Z,93.20
2018-09-12T21:06:08.532Z,93.60
2018-09-12T21:08:36.852Z,93.60
2018-09-12T21:11:05.401Z,93.70
2018-09-12T21:13:34.257Z,93.80
2018-09-12T21:16:02.726Z,93.80
2018-09-12T21:18:31.079Z,93.80
2018-09-12T21:21:00.051Z,93.80
2018-09-12T21:23:28.387Z,94.30
2018-09-12T21:25:57.634Z,93.90
2018-09-12T21:28:26.211Z,94.00
2018-09-12T21:30:55.097Z,94.10
2018-09-12T21:33:31.948Z,94.20
2018-09-12T21:36:01.697Z,94.20
2018-09-12T21:38:31.393Z,94.20
2018-09-12T21:40:59.742Z,94.50
2018-09-12T21:43:29.324Z,94.10
2018-09-12T21:45:57.797Z,94.10
2018-09-12T21:48:26.408Z,94.20
2018-09-12T21:50:54.916Z,94.20
2018-09-12T21:53:24.103Z,94.00
2018-09-12T21:55:54.769Z,94.00
2018-09-12T21:58:24.154Z,94.10
2018-09-12T22:00:52.825Z,94.00
2018-09-12T22:03:21.393Z,93.90
2018-09-12T22:05:50.708Z,94.10
2018-09-12T22:08:20.232Z,93.70
2018-09-12T22:10:51.008Z,93.80
2018-09-12T22:13:19.500Z,93.90
2018-09-12T22:15:48.254Z,93.90
2018-09-12T22:18:16.814Z,94.00
2018-09-12T22:20:45.118Z,93.90
2018-09-12T22:23:13.362Z,94.00
2018-09-12T22:25:41.827Z,93.80
2018-09-12T22:28:10.090Z,93.80
2018-09-12T22:30:38.692Z,93.60
2018-09-12T22:33:07.064Z,93.50
2018-09-12T22:35:35.418Z,93.50
2018-09-12T22:38:03.757Z,93.30
2018-09-12T22:40:32.458Z,93.00
2018-09-12T22:43:01.618Z,92.90
2018-09-12T22:45:30.161Z,93.00
2018-09-12T22:48:01.338Z,93.00
2018-09-12T22:50:29.914Z,93.30
2018-09-12T22:52:58.285Z,93.10
2018-09-12T22:55:26.519Z,93.10
2018-09-12T22:57:54.731Z,93.20
2018-09-12T23:00:23.072Z,93.20
2018-09-12T23:02:51.356Z,93.10
2018-09-12T23:05:20.878Z,93.20
2018-09-12T23:07:49.270Z,93.00
2018-09-12T23:10:17.586Z,92.80
2018-09-12T23:12:46.096Z,92.80
2018-09-12T23:15:14.396Z,93.00
2018-09-12T23:17:42.672Z,92.80
2018-09-12T23:20:10.969Z,92.90
2018-09-12T23:22:39.193Z,92.80
2018-09-12T23:25:07.727Z,92.70
2018-09-12T23:27:37.492Z,92.80
2018-09-12T23:30:05.810Z,92.90
2018-09-12T23:32:34.044Z,92.90
2018-09-12T23:35:02.265Z,92.80
2018-09-12T23:37:30.697Z,92.80
2018-09-12T23:39:59.157Z,92.60
2018-09-12T23:42:27.425Z,92.80
2018-09-12T23:44:55.653Z,92.90
2018-09-12T23:47:23.891Z,92.90
2018-09-12T23:54:52.386Z,92.80
2018-09-12T23:57:20.641Z,92.60
2018-09-12T23:59:48.880Z,92.80
